sensor_id;sensor_type;location;lat;lon;timestamp;temperature;humidity
11764;DHT22;5939;56.522;14.950;2022-10-16T00:01:11;13.20;99.90
11764;DHT22;5939;56.522;14.950;2022-10-16T00:03:42;13.20;99.90
11764;DHT22;5939;56.522;14.950;2022-10-16T00:06:09;13.20;99.90
11764;DHT22;5939;56.522;14.950;2022-10-16T00:08:35;13.20;99.90
11764;DHT22;5939;56.522;14.950;2022-10-16T00:11:23;13.20;99.90
11764;DHT22;5939;56.522;14.950;2022-10-16T00:13:50;13.20;99.90
11764;DHT22;5939;56.522;14.950;2022-10-16T00:16:18;13.20;99.90
11764;DHT22;5939;56.522;14.950;2022-10-16T00:18:44;13.20;99.90
11764;DHT22;5939;56.522;14.950;2022-10-16T00:21:22;13.20;99.90
11764;DHT22;5939;56.522;14.950;2022-10-16T00:23:51;13.20;99.90
11764;DHT22;5939;56.522;14.950;2022-10-16T00:26:17;13.20;99.90
11764;DHT22;5939;56.522;14.950;2022-10-16T00:28:49;13.20;99.90
11764;DHT22;5939;56.522;14.950;2022-10-16T00:31:16;13.20;99.90
11764;DHT22;5939;56.522;14.950;2022-10-16T00:33:42;13.20;99.90
11764;DHT22;5939;56.522;14.950;2022-10-16T00:36:11;13.20;99.90
11764;DHT22;5939;56.522;14.950;2022-10-16T00:38:38;13.20;99.90
11764;DHT22;5939;56.522;14.950;2022-10-16T00:41:05;13.20;99.90
11764;DHT22;5939;56.522;14.950;2022-10-16T00:43:45;13.20;99.90
11764;DHT22;5939;56.522;14.950;2022-10-16T00:49:17;13.20;99.90
11764;DHT22;5939;56.522;14.950;2022-10-16T00:51:49;13.20;99.90
11764;DHT22;5939;56.522;14.950;2022-10-16T00:54:23;13.20;99.90
11764;DHT22;5939;56.522;14.950;2022-10-16T00:56:50;13.20;99.90
11764;DHT22;5939;56.522;14.950;2022-10-16T00:59:25;13.20;99.90
11764;DHT22;5939;56.522;14.950;2022-10-16T01:01:52;13.20;99.90
11764;DHT22;5939;56.522;14.950;2022-10-16T01:04:18;13.20;99.90
11764;DHT22;5939;56.522;14.950;2022-10-16T01:12:15;13.20;99.90
11764;DHT22;5939;56.522;14.950;2022-10-16T01:14:53;13.20;99.90
11764;DHT22;5939;56.522;14.950;2022-10-16T01:17:27;13.20;99.90
11764;DHT22;5939;56.522;14.950;2022-10-16T01:20:10;13.20;99.90
11764;DHT22;5939;56.522;14.950;2022-10-16T01:28:21;13.20;99.90
11764;DHT22;5939;56.522;14.950;2022-10-16T01:30:51;13.20;99.90
11764;DHT22;5939;56.522;14.950;2022-10-16T01:33:24;13.20;99.90
11764;DHT22;5939;56.522;14.950;2022-10-16T01:36:02;13.20;99.90
11764;DHT22;5939;56.522;14.950;2022-10-16T01:38:40;13.20;99.90
11764;DHT22;5939;56.522;14.950;2022-10-16T01:41:11;13.20;99.90
11764;DHT22;5939;56.522;14.950;2022-10-16T01:43:56;13.20;99.90
11764;DHT22;5939;56.522;14.950;2022-10-16T01:46:25;13.20;99.90
11764;DHT22;5939;56.522;14.950;2022-10-16T01:48:52;13.30;99.90
11764;DHT22;5939;56.522;14.950;2022-10-16T01:51:19;13.20;99.90
11764;DHT22;5939;56.522;14.950;2022-10-16T01:53:49;13.30;99.90
11764;DHT22;5939;56.522;14.950;2022-10-16T01:56:17;13.30;99.90
11764;DHT22;5939;56.522;14.950;2022-10-16T01:58:50;13.30;99.90
11764;DHT22;5939;56.522;14.950;2022-10-16T02:01:19;13.30;99.90
11764;DHT22;5939;56.522;14.950;2022-10-16T02:03:46;13.30;99.90
11764;DHT22;5939;56.522;14.950;2022-10-16T02:06:14;13.30;99.90
11764;DHT22;5939;56.522;14.950;2022-10-16T02:08:39;13.30;99.90
11764;DHT22;5939;56.522;14.950;2022-10-16T02:11:10;13.30;99.90
11764;DHT22;5939;56.522;14.950;2022-10-16T02:16:01;13.30;99.90
11764;DHT22;5939;56.522;14.950;2022-10-16T02:18:27;13.30;99.90
11764;DHT22;5939;56.522;14.950;2022-10-16T02:21:14;13.30;99.90
11764;DHT22;5939;56.522;14.950;2022-10-16T02:27:10;13.30;99.90
11764;DHT22;5939;56.522;14.950;2022-10-16T02:29:40;13.30;99.90
11764;DHT22;5939;56.522;14.950;2022-10-16T02:32:10;13.30;99.90
11764;DHT22;5939;56.522;14.950;2022-10-16T02:34:37;13.30;99.90
11764;DHT22;5939;56.522;14.950;2022-10-16T02:37:04;13.30;99.90
11764;DHT22;5939;56.522;14.950;2022-10-16T02:39:31;13.30;99.90
11764;DHT22;5939;56.522;14.950;2022-10-16T02:41:57;13.30;99.90
11764;DHT22;5939;56.522;14.950;2022-10-16T02:44:22;13.30;99.90
11764;DHT22;5939;56.522;14.950;2022-10-16T02:46:48;13.30;99.90
11764;DHT22;5939;56.522;14.950;2022-10-16T02:49:14;13.30;99.90
11764;DHT22;5939;56.522;14.950;2022-10-16T02:51:40;13.30;99.90
11764;DHT22;5939;56.522;14.950;2022-10-16T02:54:06;13.30;99.90
11764;DHT22;5939;56.522;14.950;2022-10-16T02:56:31;13.30;99.90
11764;DHT22;5939;56.522;14.950;2022-10-16T02:58:57;13.30;99.90
11764;DHT22;5939;56.522;14.950;2022-10-16T03:01:23;13.40;99.90
11764;DHT22;5939;56.522;14.950;2022-10-16T03:03:49;13.40;99.90
11764;DHT22;5939;56.522;14.950;2022-10-16T03:06:15;13.40;99.90
11764;DHT22;5939;56.522;14.950;2022-10-16T03:08:40;13.40;99.90
11764;DHT22;5939;56.522;14.950;2022-10-16T03:11:06;13.40;99.90
11764;DHT22;5939;56.522;14.950;2022-10-16T03:13:32;13.40;99.90
11764;DHT22;5939;56.522;14.950;2022-10-16T03:15:57;13.40;99.90
11764;DHT22;5939;56.522;14.950;2022-10-16T03:18:23;13.40;99.90
11764;DHT22;5939;56.522;14.950;2022-10-16T03:20:49;13.40;99.90
11764;DHT22;5939;56.522;14.950;2022-10-16T03:23:14;13.40;99.90
11764;DHT22;5939;56.522;14.950;2022-10-16T03:25:40;13.40;99.90
11764;DHT22;5939;56.522;14.950;2022-10-16T03:28:06;13.40;99.90
11764;DHT22;5939;56.522;14.950;2022-10-16T03:30:31;13.40;99.90
11764;DHT22;5939;56.522;14.950;2022-10-16T03:32:57;13.40;99.90
11764;DHT22;5939;56.522;14.950;2022-10-16T03:35:24;13.40;99.90
11764;DHT22;5939;56.522;14.950;2022-10-16T03:37:50;13.40;99.90
11764;DHT22;5939;56.522;14.950;2022-10-16T03:40:16;13.40;99.90
11764;DHT22;5939;56.522;14.950;2022-10-16T03:42:43;13.40;99.90
11764;DHT22;5939;56.522;14.950;2022-10-16T03:45:09;13.40;99.90
11764;DHT22;5939;56.522;14.950;2022-10-16T03:47:35;13.40;99.90
11764;DHT22;5939;56.522;14.950;2022-10-16T03:50:01;13.40;99.90
11764;DHT22;5939;56.522;14.950;2022-10-16T03:52:27;13.40;99.90
11764;DHT22;5939;56.522;14.950;2022-10-16T03:54:52;13.40;99.90
11764;DHT22;5939;56.522;14.950;2022-10-16T03:57:18;13.40;99.90
11764;DHT22;5939;56.522;14.950;2022-10-16T03:59:44;13.30;99.90
11764;DHT22;5939;56.522;14.950;2022-10-16T04:02:09;13.30;99.90
11764;DHT22;5939;56.522;14.950;2022-10-16T04:04:35;13.30;99.90
11764;DHT22;5939;56.522;14.950;2022-10-16T04:07:01;13.30;99.90
11764;DHT22;5939;56.522;14.950;2022-10-16T04:09:26;13.30;99.90
11764;DHT22;5939;56.522;14.950;2022-10-16T04:11:52;13.30;99.90
11764;DHT22;5939;56.522;14.950;2022-10-16T04:14:18;13.30;99.90
11764;DHT22;5939;56.522;14.950;2022-10-16T04:16:43;13.30;99.90
11764;DHT22;5939;56.522;14.950;2022-10-16T04:19:10;13.30;99.90
11764;DHT22;5939;56.522;14.950;2022-10-16T04:21:36;13.30;99.90
11764;DHT22;5939;56.522;14.950;2022-10-16T04:24:02;13.20;99.90
11764;DHT22;5939;56.522;14.950;2022-10-16T04:26:27;13.20;99.90
11764;DHT22;5939;56.522;14.950;2022-10-16T04:28:53;13.20;99.90
11764;DHT22;5939;56.522;14.950;2022-10-16T04:31:19;13.20;99.90
11764;DHT22;5939;56.522;14.950;2022-10-16T04:33:45;13.20;99.90
11764;DHT22;5939;56.522;14.950;2022-10-16T04:36:11;13.20;99.90
11764;DHT22;5939;56.522;14.950;2022-10-16T04:38:36;13.20;99.90
11764;DHT22;5939;56.522;14.950;2022-10-16T04:41:03;13.10;99.90
11764;DHT22;5939;56.522;14.950;2022-10-16T04:43:29;13.10;99.90
11764;DHT22;5939;56.522;14.950;2022-10-16T04:45:55;13.10;99.90
11764;DHT22;5939;56.522;14.950;2022-10-16T04:48:22;13.10;99.90
11764;DHT22;5939;56.522;14.950;2022-10-16T04:50:47;13.10;99.90
11764;DHT22;5939;56.522;14.950;2022-10-16T04:53:13;13.10;99.90
11764;DHT22;5939;56.522;14.950;2022-10-16T04:55:39;13.10;99.90
11764;DHT22;5939;56.522;14.950;2022-10-16T04:58:06;13.10;99.90
11764;DHT22;5939;56.522;14.950;2022-10-16T05:00:32;13.00;99.90
11764;DHT22;5939;56.522;14.950;2022-10-16T05:02:58;13.00;99.90
11764;DHT22;5939;56.522;14.950;2022-10-16T05:05:26;13.10;99.90
11764;DHT22;5939;56.522;14.950;2022-10-16T05:07:52;13.00;99.90
11764;DHT22;5939;56.522;14.950;2022-10-16T05:10:17;13.00;99.90
11764;DHT22;5939;56.522;14.950;2022-10-16T05:12:43;13.00;99.90
11764;DHT22;5939;56.522;14.950;2022-10-16T05:15:09;13.00;99.90
11764;DHT22;5939;56.522;14.950;2022-10-16T05:17:35;13.00;99.90
11764;DHT22;5939;56.522;14.950;2022-10-16T05:20:01;13.00;99.90
11764;DHT22;5939;56.522;14.950;2022-10-16T05:22:27;12.90;99.90
11764;DHT22;5939;56.522;14.950;2022-10-16T05:24:52;12.90;99.90
11764;DHT22;5939;56.522;14.950;2022-10-16T05:27:18;12.90;99.90
11764;DHT22;5939;56.522;14.950;2022-10-16T05:29:47;12.90;99.90
11764;DHT22;5939;56.522;14.950;2022-10-16T05:32:14;12.90;99.90
11764;DHT22;5939;56.522;14.950;2022-10-16T05:34:40;12.90;99.90
11764;DHT22;5939;56.522;14.950;2022-10-16T05:37:06;12.90;99.90
11764;DHT22;5939;56.522;14.950;2022-10-16T05:39:31;12.90;99.90
11764;DHT22;5939;56.522;14.950;2022-10-16T05:41:57;12.80;99.90
11764;DHT22;5939;56.522;14.950;2022-10-16T05:44:23;12.80;99.90
11764;DHT22;5939;56.522;14.950;2022-10-16T05:46:48;12.90;99.90
11764;DHT22;5939;56.522;14.950;2022-10-16T05:49:14;12.80;99.90
11764;DHT22;5939;56.522;14.950;2022-10-16T05:51:40;12.80;99.90
11764;DHT22;5939;56.522;14.950;2022-10-16T05:54:06;12.80;99.90
11764;DHT22;5939;56.522;14.950;2022-10-16T05:56:32;12.80;99.90
11764;DHT22;5939;56.522;14.950;2022-10-16T05:58:58;12.80;99.90
11764;DHT22;5939;56.522;14.950;2022-10-16T06:01:23;12.80;99.90
11764;DHT22;5939;56.522;14.950;2022-10-16T06:03:52;12.80;99.90
11764;DHT22;5939;56.522;14.950;2022-10-16T06:06:23;12.80;99.90
11764;DHT22;5939;56.522;14.950;2022-10-16T06:08:52;12.80;99.90
11764;DHT22;5939;56.522;14.950;2022-10-16T06:11:22;12.80;99.90
11764;DHT22;5939;56.522;14.950;2022-10-16T06:13:57;12.80;99.90
11764;DHT22;5939;56.522;14.950;2022-10-16T06:16:24;12.70;99.90
11764;DHT22;5939;56.522;14.950;2022-10-16T06:18:51;12.70;99.90
11764;DHT22;5939;56.522;14.950;2022-10-16T06:21:20;12.70;99.90
11764;DHT22;5939;56.522;14.950;2022-10-16T06:23:47;12.70;99.90
11764;DHT22;5939;56.522;14.950;2022-10-16T06:26:17;12.80;99.90
11764;DHT22;5939;56.522;14.950;2022-10-16T06:28:43;12.70;99.90
11764;DHT22;5939;56.522;14.950;2022-10-16T06:31:10;12.70;99.90
11764;DHT22;5939;56.522;14.950;2022-10-16T06:33:37;12.70;99.90
11764;DHT22;5939;56.522;14.950;2022-10-16T06:36:06;12.70;99.90
11764;DHT22;5939;56.522;14.950;2022-10-16T06:38:33;12.70;99.90
11764;DHT22;5939;56.522;14.950;2022-10-16T06:40:59;12.70;99.90
11764;DHT22;5939;56.522;14.950;2022-10-16T06:43:26;12.70;99.90
11764;DHT22;5939;56.522;14.950;2022-10-16T06:45:53;12.70;99.90
11764;DHT22;5939;56.522;14.950;2022-10-16T06:48:19;12.70;99.90
11764;DHT22;5939;56.522;14.950;2022-10-16T06:51:02;12.70;99.90
11764;DHT22;5939;56.522;14.950;2022-10-16T06:53:31;12.70;99.90
11764;DHT22;5939;56.522;14.950;2022-10-16T06:55:57;12.70;99.90
11764;DHT22;5939;56.522;14.950;2022-10-16T06:58:23;12.70;99.90
11764;DHT22;5939;56.522;14.950;2022-10-16T07:00:49;12.70;99.90
11764;DHT22;5939;56.522;14.950;2022-10-16T07:03:20;12.80;99.90
11764;DHT22;5939;56.522;14.950;2022-10-16T07:05:45;12.70;99.90
11764;DHT22;5939;56.522;14.950;2022-10-16T07:08:11;12.80;99.90
11764;DHT22;5939;56.522;14.950;2022-10-16T07:10:36;12.70;99.90
11764;DHT22;5939;56.522;14.950;2022-10-16T07:13:02;12.80;99.90
11764;DHT22;5939;56.522;14.950;2022-10-16T07:15:28;12.80;99.90
11764;DHT22;5939;56.522;14.950;2022-10-16T07:17:54;12.80;99.90
11764;DHT22;5939;56.522;14.950;2022-10-16T07:20:19;12.80;99.90
11764;DHT22;5939;56.522;14.950;2022-10-16T07:22:45;12.80;99.90
11764;DHT22;5939;56.522;14.950;2022-10-16T07:25:11;12.80;99.90
11764;DHT22;5939;56.522;14.950;2022-10-16T07:27:37;12.80;99.90
11764;DHT22;5939;56.522;14.950;2022-10-16T07:30:04;12.90;99.90
11764;DHT22;5939;56.522;14.950;2022-10-16T07:32:30;12.90;99.90
11764;DHT22;5939;56.522;14.950;2022-10-16T07:34:56;13.00;99.90
11764;DHT22;5939;56.522;14.950;2022-10-16T07:37:22;13.00;99.90
11764;DHT22;5939;56.522;14.950;2022-10-16T07:39:47;13.00;99.90
11764;DHT22;5939;56.522;14.950;2022-10-16T07:42:13;13.10;99.90
11764;DHT22;5939;56.522;14.950;2022-10-16T07:44:39;13.10;99.90
11764;DHT22;5939;56.522;14.950;2022-10-16T07:47:05;13.20;99.90
11764;DHT22;5939;56.522;14.950;2022-10-16T07:49:31;13.30;99.90
11764;DHT22;5939;56.522;14.950;2022-10-16T07:51:56;13.40;99.90
11764;DHT22;5939;56.522;14.950;2022-10-16T07:54:22;13.50;99.90
11764;DHT22;5939;56.522;14.950;2022-10-16T07:56:48;13.50;99.90
11764;DHT22;5939;56.522;14.950;2022-10-16T07:59:13;13.60;99.90
11764;DHT22;5939;56.522;14.950;2022-10-16T08:01:39;13.70;99.90
11764;DHT22;5939;56.522;14.950;2022-10-16T08:04:08;13.80;99.90
11764;DHT22;5939;56.522;14.950;2022-10-16T08:06:39;13.80;99.90
11764;DHT22;5939;56.522;14.950;2022-10-16T08:09:06;13.90;99.90
11764;DHT22;5939;56.522;14.950;2022-10-16T08:11:32;13.90;99.90
11764;DHT22;5939;56.522;14.950;2022-10-16T08:13:57;14.00;99.90
11764;DHT22;5939;56.522;14.950;2022-10-16T08:16:23;14.00;99.90
11764;DHT22;5939;56.522;14.950;2022-10-16T08:18:49;14.00;99.90
11764;DHT22;5939;56.522;14.950;2022-10-16T08:21:19;14.10;99.90
11764;DHT22;5939;56.522;14.950;2022-10-16T08:23:45;14.10;99.90
11764;DHT22;5939;56.522;14.950;2022-10-16T08:26:11;14.10;99.90
11764;DHT22;5939;56.522;14.950;2022-10-16T08:28:37;14.10;99.90
11764;DHT22;5939;56.522;14.950;2022-10-16T08:31:12;14.10;99.90
11764;DHT22;5939;56.522;14.950;2022-10-16T08:33:39;14.20;99.90
11764;DHT22;5939;56.522;14.950;2022-10-16T08:36:06;14.20;99.90
11764;DHT22;5939;56.522;14.950;2022-10-16T08:38:32;14.20;99.90
11764;DHT22;5939;56.522;14.950;2022-10-16T08:49:30;14.30;99.90
11764;DHT22;5939;56.522;14.950;2022-10-16T08:51:56;14.40;99.90
11764;DHT22;5939;56.522;14.950;2022-10-16T08:54:29;14.40;99.90
11764;DHT22;5939;56.522;14.950;2022-10-16T08:56:57;14.40;99.90
11764;DHT22;5939;56.522;14.950;2022-10-16T08:59:26;14.40;99.90
11764;DHT22;5939;56.522;14.950;2022-10-16T09:01:52;14.50;99.90
11764;DHT22;5939;56.522;14.950;2022-10-16T09:04:42;14.50;99.90
11764;DHT22;5939;56.522;14.950;2022-10-16T09:07:34;14.60;99.90
11764;DHT22;5939;56.522;14.950;2022-10-16T09:13:17;14.60;99.90
11764;DHT22;5939;56.522;14.950;2022-10-16T09:21:30;14.70;99.90
11764;DHT22;5939;56.522;14.950;2022-10-16T09:24:14;14.70;99.90
11764;DHT22;5939;56.522;14.950;2022-10-16T09:26:40;14.80;99.90
11764;DHT22;5939;56.522;14.950;2022-10-16T09:29:06;14.70;99.90
11764;DHT22;5939;56.522;14.950;2022-10-16T09:31:32;14.80;99.90
11764;DHT22;5939;56.522;14.950;2022-10-16T09:34:03;14.80;99.90
11764;DHT22;5939;56.522;14.950;2022-10-16T09:36:36;14.70;99.90
11764;DHT22;5939;56.522;14.950;2022-10-16T09:39:07;14.80;99.90
11764;DHT22;5939;56.522;14.950;2022-10-16T09:41:39;14.80;99.90
11764;DHT22;5939;56.522;14.950;2022-10-16T09:44:28;14.80;99.90
11764;DHT22;5939;56.522;14.950;2022-10-16T09:47:06;14.80;99.90
11764;DHT22;5939;56.522;14.950;2022-10-16T09:49:37;14.80;99.90
11764;DHT22;5939;56.522;14.950;2022-10-16T09:52:13;14.80;99.90
11764;DHT22;5939;56.522;14.950;2022-10-16T09:54:56;14.80;99.90
11764;DHT22;5939;56.522;14.950;2022-10-16T09:57:23;14.80;99.90
11764;DHT22;5939;56.522;14.950;2022-10-16T09:59:51;14.90;99.90
11764;DHT22;5939;56.522;14.950;2022-10-16T10:02:30;14.90;99.90
11764;DHT22;5939;56.522;14.950;2022-10-16T10:04:56;14.90;99.90
11764;DHT22;5939;56.522;14.950;2022-10-16T10:07:28;15.00;99.90
11764;DHT22;5939;56.522;14.950;2022-10-16T10:09:58;15.10;99.90
11764;DHT22;5939;56.522;14.950;2022-10-16T10:12:26;15.10;99.90
11764;DHT22;5939;56.522;14.950;2022-10-16T10:14:56;15.10;99.90
11764;DHT22;5939;56.522;14.950;2022-10-16T10:17:27;15.20;99.90
11764;DHT22;5939;56.522;14.950;2022-10-16T10:19:59;15.30;99.90
11764;DHT22;5939;56.522;14.950;2022-10-16T10:22:30;15.30;99.90
11764;DHT22;5939;56.522;14.950;2022-10-16T10:38:19;15.60;99.90
11764;DHT22;5939;56.522;14.950;2022-10-16T10:40:56;15.60;99.90
11764;DHT22;5939;56.522;14.950;2022-10-16T10:46:39;15.70;99.90
11764;DHT22;5939;56.522;14.950;2022-10-16T10:54:57;15.80;99.90
11764;DHT22;5939;56.522;14.950;2022-10-16T11:05:40;15.90;99.90
11764;DHT22;5939;56.522;14.950;2022-10-16T11:13:32;16.00;99.90
11764;DHT22;5939;56.522;14.950;2022-10-16T11:16:24;15.90;99.90
11764;DHT22;5939;56.522;14.950;2022-10-16T11:18:54;16.00;99.90
11764;DHT22;5939;56.522;14.950;2022-10-16T11:21:23;16.00;99.90
11764;DHT22;5939;56.522;14.950;2022-10-16T11:23:59;16.00;99.90
11764;DHT22;5939;56.522;14.950;2022-10-16T11:26:34;16.00;99.90
11764;DHT22;5939;56.522;14.950;2022-10-16T11:29:01;16.00;99.90
11764;DHT22;5939;56.522;14.950;2022-10-16T11:31:47;16.00;99.90
11764;DHT22;5939;56.522;14.950;2022-10-16T11:34:34;16.00;99.90
11764;DHT22;5939;56.522;14.950;2022-10-16T11:37:19;16.00;99.90
11764;DHT22;5939;56.522;14.950;2022-10-16T11:39:45;16.10;99.90
11764;DHT22;5939;56.522;14.950;2022-10-16T11:42:34;16.10;99.90
11764;DHT22;5939;56.522;14.950;2022-10-16T11:45:34;16.00;99.90
11764;DHT22;5939;56.522;14.950;2022-10-16T11:48:20;16.00;99.90
11764;DHT22;5939;56.522;14.950;2022-10-16T11:51:00;16.00;99.90
11764;DHT22;5939;56.522;14.950;2022-10-16T11:56:20;16.00;99.90
11764;DHT22;5939;56.522;14.950;2022-10-16T11:59:08;16.00;99.90
11764;DHT22;5939;56.522;14.950;2022-10-16T12:01:48;16.00;99.90
11764;DHT22;5939;56.522;14.950;2022-10-16T12:04:25;16.10;99.90
11764;DHT22;5939;56.522;14.950;2022-10-16T12:07:07;16.00;99.90
11764;DHT22;5939;56.522;14.950;2022-10-16T12:09:38;16.00;99.90
11764;DHT22;5939;56.522;14.950;2022-10-16T12:12:04;16.00;99.90
11764;DHT22;5939;56.522;14.950;2022-10-16T12:14:37;16.00;99.90
11764;DHT22;5939;56.522;14.950;2022-10-16T12:17:04;16.00;99.90
11764;DHT22;5939;56.522;14.950;2022-10-16T12:19:58;16.00;99.90
11764;DHT22;5939;56.522;14.950;2022-10-16T12:22:28;16.00;99.90
11764;DHT22;5939;56.522;14.950;2022-10-16T12:24:54;16.00;99.90
11764;DHT22;5939;56.522;14.950;2022-10-16T12:29:58;16.00;99.90
11764;DHT22;5939;56.522;14.950;2022-10-16T12:32:32;16.00;99.90
11764;DHT22;5939;56.522;14.950;2022-10-16T12:34:59;16.00;99.90
11764;DHT22;5939;56.522;14.950;2022-10-16T12:37:36;16.00;99.90
11764;DHT22;5939;56.522;14.950;2022-10-16T12:42:50;16.00;99.90
11764;DHT22;5939;56.522;14.950;2022-10-16T12:47:57;15.90;99.90
11764;DHT22;5939;56.522;14.950;2022-10-16T12:50:36;15.90;99.90
11764;DHT22;5939;56.522;14.950;2022-10-16T12:53:04;15.90;99.90
11764;DHT22;5939;56.522;14.950;2022-10-16T13:01:32;15.90;99.90
11764;DHT22;5939;56.522;14.950;2022-10-16T13:06:49;15.80;99.90
11764;DHT22;5939;56.522;14.950;2022-10-16T13:18:49;15.80;99.90
11764;DHT22;5939;56.522;14.950;2022-10-16T13:20:55;15.70;99.90
11764;DHT22;5939;56.522;14.950;2022-10-16T13:23:34;15.70;99.90
11764;DHT22;5939;56.522;14.950;2022-10-16T13:26:28;15.70;99.90
11764;DHT22;5939;56.522;14.950;2022-10-16T13:28:50;15.70;99.90
11764;DHT22;5939;56.522;14.950;2022-10-16T13:31:19;15.70;99.90
11764;DHT22;5939;56.522;14.950;2022-10-16T13:33:48;15.70;99.90
11764;DHT22;5939;56.522;14.950;2022-10-16T13:36:24;15.60;99.90
11764;DHT22;5939;56.522;14.950;2022-10-16T13:41:34;15.60;99.90
11764;DHT22;5939;56.522;14.950;2022-10-16T13:44:00;15.60;99.90
11764;DHT22;5939;56.522;14.950;2022-10-16T13:46:25;15.60;99.90
11764;DHT22;5939;56.522;14.950;2022-10-16T13:49:03;15.60;99.90
11764;DHT22;5939;56.522;14.950;2022-10-16T13:51:30;15.60;99.90
11764;DHT22;5939;56.522;14.950;2022-10-16T13:53:57;15.60;99.90
11764;DHT22;5939;56.522;14.950;2022-10-16T13:56:27;15.50;99.90
11764;DHT22;5939;56.522;14.950;2022-10-16T13:59:04;15.50;99.90
11764;DHT22;5939;56.522;14.950;2022-10-16T14:01:42;15.50;99.90
11764;DHT22;5939;56.522;14.950;2022-10-16T14:04:13;15.50;99.90
11764;DHT22;5939;56.522;14.950;2022-10-16T14:06:42;15.40;99.90
11764;DHT22;5939;56.522;14.950;2022-10-16T14:11:46;15.40;99.90
11764;DHT22;5939;56.522;14.950;2022-10-16T14:14:14;15.40;99.90
11764;DHT22;5939;56.522;14.950;2022-10-16T14:16:42;15.40;99.90
11764;DHT22;5939;56.522;14.950;2022-10-16T14:19:26;15.40;99.90
11764;DHT22;5939;56.522;14.950;2022-10-16T14:21:53;15.40;99.90
11764;DHT22;5939;56.522;14.950;2022-10-16T14:24:37;15.30;99.90
11764;DHT22;5939;56.522;14.950;2022-10-16T14:27:28;15.30;99.90
11764;DHT22;5939;56.522;14.950;2022-10-16T14:30:18;15.30;99.90
11764;DHT22;5939;56.522;14.950;2022-10-16T14:33:24;15.30;99.90
11764;DHT22;5939;56.522;14.950;2022-10-16T14:38:28;15.30;99.90
11764;DHT22;5939;56.522;14.950;2022-10-16T14:40:57;15.30;99.90
11764;DHT22;5939;56.522;14.950;2022-10-16T14:43:36;15.20;99.90
11764;DHT22;5939;56.522;14.950;2022-10-16T14:46:05;15.20;99.90
11764;DHT22;5939;56.522;14.950;2022-10-16T14:48:32;15.20;99.90
11764;DHT22;5939;56.522;14.950;2022-10-16T14:50:58;15.20;99.90
11764;DHT22;5939;56.522;14.950;2022-10-16T14:53:23;15.20;99.90
11764;DHT22;5939;56.522;14.950;2022-10-16T14:55:49;15.10;99.90
11764;DHT22;5939;56.522;14.950;2022-10-16T14:58:19;15.10;99.90
11764;DHT22;5939;56.522;14.950;2022-10-16T15:00:45;15.10;99.90
11764;DHT22;5939;56.522;14.950;2022-10-16T15:03:11;15.10;99.90
11764;DHT22;5939;56.522;14.950;2022-10-16T15:05:36;15.10;99.90
11764;DHT22;5939;56.522;14.950;2022-10-16T15:08:02;15.10;99.90
11764;DHT22;5939;56.522;14.950;2022-10-16T15:10:30;15.00;99.90
11764;DHT22;5939;56.522;14.950;2022-10-16T15:12:58;15.00;99.90
11764;DHT22;5939;56.522;14.950;2022-10-16T15:15:30;15.00;99.90
11764;DHT22;5939;56.522;14.950;2022-10-16T15:17:56;15.00;99.90
11764;DHT22;5939;56.522;14.950;2022-10-16T15:20:27;15.00;99.90
11764;DHT22;5939;56.522;14.950;2022-10-16T15:22:52;14.90;99.90
11764;DHT22;5939;56.522;14.950;2022-10-16T15:27:56;14.90;99.90
11764;DHT22;5939;56.522;14.950;2022-10-16T15:30:21;14.90;99.90
11764;DHT22;5939;56.522;14.950;2022-10-16T15:32:48;14.90;99.90
11764;DHT22;5939;56.522;14.950;2022-10-16T15:35:14;14.80;99.90
11764;DHT22;5939;56.522;14.950;2022-10-16T15:37:39;14.80;99.90
11764;DHT22;5939;56.522;14.950;2022-10-16T15:40:05;14.80;99.90
11764;DHT22;5939;56.522;14.950;2022-10-16T15:42:31;14.80;99.90
11764;DHT22;5939;56.522;14.950;2022-10-16T15:44:56;14.70;99.90
11764;DHT22;5939;56.522;14.950;2022-10-16T15:47:22;14.70;99.90
11764;DHT22;5939;56.522;14.950;2022-10-16T15:49:48;14.70;99.90
11764;DHT22;5939;56.522;14.950;2022-10-16T15:52:13;14.60;99.90
11764;DHT22;5939;56.522;14.950;2022-10-16T15:54:39;14.60;99.90
11764;DHT22;5939;56.522;14.950;2022-10-16T15:57:05;14.60;99.90
11764;DHT22;5939;56.522;14.950;2022-10-16T15:59:30;14.60;99.90
11764;DHT22;5939;56.522;14.950;2022-10-16T16:01:56;14.60;99.90
11764;DHT22;5939;56.522;14.950;2022-10-16T16:04:21;14.50;99.90
11764;DHT22;5939;56.522;14.950;2022-10-16T16:06:47;14.50;99.90
11764;DHT22;5939;56.522;14.950;2022-10-16T16:09:13;14.50;99.90
11764;DHT22;5939;56.522;14.950;2022-10-16T16:11:39;14.50;99.90
11764;DHT22;5939;56.522;14.950;2022-10-16T16:14:06;14.40;99.90
11764;DHT22;5939;56.522;14.950;2022-10-16T16:16:32;14.40;99.90
11764;DHT22;5939;56.522;14.950;2022-10-16T16:19:03;14.40;99.90
11764;DHT22;5939;56.522;14.950;2022-10-16T16:21:30;14.40;99.90
11764;DHT22;5939;56.522;14.950;2022-10-16T16:23:55;14.30;99.90
11764;DHT22;5939;56.522;14.950;2022-10-16T16:26:28;14.30;99.90
11764;DHT22;5939;56.522;14.950;2022-10-16T16:28:59;14.30;99.90
11764;DHT22;5939;56.522;14.950;2022-10-16T16:31:26;14.20;99.90
11764;DHT22;5939;56.522;14.950;2022-10-16T16:33:53;14.20;99.90
11764;DHT22;5939;56.522;14.950;2022-10-16T16:36:19;14.20;99.90
11764;DHT22;5939;56.522;14.950;2022-10-16T16:38:45;14.20;99.90
11764;DHT22;5939;56.522;14.950;2022-10-16T16:41:16;14.10;99.90
11764;DHT22;5939;56.522;14.950;2022-10-16T16:43:42;14.10;99.90
11764;DHT22;5939;56.522;14.950;2022-10-16T16:46:08;14.10;99.90
11764;DHT22;5939;56.522;14.950;2022-10-16T16:48:34;14.10;99.90
11764;DHT22;5939;56.522;14.950;2022-10-16T16:51:14;14.00;99.90
11764;DHT22;5939;56.522;14.950;2022-10-16T16:53:42;14.00;99.90
11764;DHT22;5939;56.522;14.950;2022-10-16T16:56:08;14.00;99.90
11764;DHT22;5939;56.522;14.950;2022-10-16T16:58:34;13.90;99.90
11764;DHT22;5939;56.522;14.950;2022-10-16T17:01:00;13.90;99.90
11764;DHT22;5939;56.522;14.950;2022-10-16T17:03:34;13.90;99.90
11764;DHT22;5939;56.522;14.950;2022-10-16T17:06:01;13.90;99.90
11764;DHT22;5939;56.522;14.950;2022-10-16T17:08:27;13.90;99.90
11764;DHT22;5939;56.522;14.950;2022-10-16T17:10:54;13.80;99.90
11764;DHT22;5939;56.522;14.950;2022-10-16T17:13:28;13.80;99.90
11764;DHT22;5939;56.522;14.950;2022-10-16T17:15:54;13.80;99.90
11764;DHT22;5939;56.522;14.950;2022-10-16T17:18:21;13.70;99.90
11764;DHT22;5939;56.522;14.950;2022-10-16T17:20:47;13.70;99.90
11764;DHT22;5939;56.522;14.950;2022-10-16T17:23:14;13.70;99.90
11764;DHT22;5939;56.522;14.950;2022-10-16T17:25:41;13.70;99.90
11764;DHT22;5939;56.522;14.950;2022-10-16T17:28:08;13.70;99.90
11764;DHT22;5939;56.522;14.950;2022-10-16T17:30:37;13.60;99.90
11764;DHT22;5939;56.522;14.950;2022-10-16T17:33:04;13.60;99.90
11764;DHT22;5939;56.522;14.950;2022-10-16T17:35:38;13.60;99.90